sensor_id;sensor_type;location;lat;lon;timestamp;temperature;humidity
19868;DHT22;10096;51.112;6.776;2022-11-11T00:00:49;9.40;13.70
19868;DHT22;10096;51.112;6.776;2022-11-11T00:03:18;9.40;28.10
19868;DHT22;10096;51.112;6.776;2022-11-11T00:05:44;9.40;57.80
19868;DHT22;10096;51.112;6.776;2022-11-11T00:08:12;9.40;89.50
19868;DHT22;10096;51.112;6.776;2022-11-11T00:10:38;9.60;99.90
19868;DHT22;10096;51.112;6.776;2022-11-11T00:13:06;9.30;99.90
19868;DHT22;10096;51.112;6.776;2022-11-11T00:15:36;9.40;99.90
19868;DHT22;10096;51.112;6.776;2022-11-11T00:18:03;9.30;99.90
19868;DHT22;10096;51.112;6.776;2022-11-11T00:20:49;9.40;99.90
19868;DHT22;10096;51.112;6.776;2022-11-11T00:23:34;9.30;99.90
19868;DHT22;10096;51.112;6.776;2022-11-11T00:26:18;9.30;99.90
19868;DHT22;10096;51.112;6.776;2022-11-11T00:28:45;9.20;99.90
19868;DHT22;10096;51.112;6.776;2022-11-11T00:31:13;9.20;99.90
19868;DHT22;10096;51.112;6.776;2022-11-11T00:33:40;9.40;99.90
19868;DHT22;10096;51.112;6.776;2022-11-11T00:36:09;9.30;99.90
19868;DHT22;10096;51.112;6.776;2022-11-11T00:38:35;9.30;99.90
19868;DHT22;10096;51.112;6.776;2022-11-11T00:41:13;9.20;99.90
19868;DHT22;10096;51.112;6.776;2022-11-11T00:43:40;9.20;84.70
19868;DHT22;10096;51.112;6.776;2022-11-11T00:46:10;9.20;45.60
19868;DHT22;10096;51.112;6.776;2022-11-11T00:48:55;9.20;1.00
19868;DHT22;10096;51.112;6.776;2022-11-11T00:51:40;9.00;68.40
19868;DHT22;10096;51.112;6.776;2022-11-11T00:54:08;9.00;99.90
19868;DHT22;10096;51.112;6.776;2022-11-11T00:56:35;8.90;99.90
19868;DHT22;10096;51.112;6.776;2022-11-11T00:59:03;8.90;99.90
19868;DHT22;10096;51.112;6.776;2022-11-11T01:01:30;8.90;99.90
19868;DHT22;10096;51.112;6.776;2022-11-11T01:03:58;8.80;99.90
19868;DHT22;10096;51.112;6.776;2022-11-11T01:06:25;8.80;99.90
19868;DHT22;10096;51.112;6.776;2022-11-11T01:08:54;8.70;1.00
19868;DHT22;10096;51.112;6.776;2022-11-11T01:11:23;8.70;1.00
19868;DHT22;10096;51.112;6.776;2022-11-11T01:13:50;8.70;1.00
19868;DHT22;10096;51.112;6.776;2022-11-11T01:16:19;8.90;1.00
19868;DHT22;10096;51.112;6.776;2022-11-11T01:18:47;8.60;1.00
19868;DHT22;10096;51.112;6.776;2022-11-11T01:21:17;8.80;1.00
19868;DHT22;10096;51.112;6.776;2022-11-11T01:23:45;8.60;1.00
19868;DHT22;10096;51.112;6.776;2022-11-11T01:26:17;8.60;1.00
19868;DHT22;10096;51.112;6.776;2022-11-11T01:28:47;8.60;1.00
19868;DHT22;10096;51.112;6.776;2022-11-11T01:31:15;8.40;1.00
19868;DHT22;10096;51.112;6.776;2022-11-11T01:33:44;8.40;1.00
19868;DHT22;10096;51.112;6.776;2022-11-11T01:36:15;8.50;99.90
19868;DHT22;10096;51.112;6.776;2022-11-11T01:38:42;8.60;1.00
19868;DHT22;10096;51.112;6.776;2022-11-11T01:41:11;8.50;1.00
19868;DHT22;10096;51.112;6.776;2022-11-11T01:43:58;8.40;97.60
19868;DHT22;10096;51.112;6.776;2022-11-11T01:46:31;8.40;1.00
19868;DHT22;10096;51.112;6.776;2022-11-11T01:49:15;8.40;1.00
19868;DHT22;10096;51.112;6.776;2022-11-11T01:51:52;8.60;99.90
19868;DHT22;10096;51.112;6.776;2022-11-11T01:54:26;8.50;1.00
19868;DHT22;10096;51.112;6.776;2022-11-11T01:57:00;8.50;99.90
19868;DHT22;10096;51.112;6.776;2022-11-11T01:59:32;8.60;1.00
19868;DHT22;10096;51.112;6.776;2022-11-11T02:02:03;8.60;1.00
19868;DHT22;10096;51.112;6.776;2022-11-11T02:04:32;8.60;1.00
19868;DHT22;10096;51.112;6.776;2022-11-11T02:07:18;8.70;1.00
19868;DHT22;10096;51.112;6.776;2022-11-11T02:09:46;8.70;99.90
19868;DHT22;10096;51.112;6.776;2022-11-11T02:12:14;8.70;20.50
19868;DHT22;10096;51.112;6.776;2022-11-11T02:15:00;8.80;1.00
19868;DHT22;10096;51.112;6.776;2022-11-11T02:17:29;8.80;67.80
19868;DHT22;10096;51.112;6.776;2022-11-11T02:19:59;8.80;99.90
19868;DHT22;10096;51.112;6.776;2022-11-11T02:22:32;8.90;99.90
19868;DHT22;10096;51.112;6.776;2022-11-11T02:25:03;8.90;1.00
19868;DHT22;10096;51.112;6.776;2022-11-11T02:27:34;8.90;1.00
19868;DHT22;10096;51.112;6.776;2022-11-11T02:30:04;9.00;99.90
19868;DHT22;10096;51.112;6.776;2022-11-11T02:32:32;8.80;1.00
19868;DHT22;10096;51.112;6.776;2022-11-11T02:34:59;8.80;99.90
19868;DHT22;10096;51.112;6.776;2022-11-11T02:37:26;8.70;99.90
19868;DHT22;10096;51.112;6.776;2022-11-11T02:39:58;8.70;99.90
19868;DHT22;10096;51.112;6.776;2022-11-11T02:42:27;8.70;1.00
19868;DHT22;10096;51.112;6.776;2022-11-11T02:44:53;8.70;1.00
19868;DHT22;10096;51.112;6.776;2022-11-11T02:47:24;8.70;1.00
19868;DHT22;10096;51.112;6.776;2022-11-11T02:49:51;8.80;1.00
19868;DHT22;10096;51.112;6.776;2022-11-11T02:52:18;8.80;99.90
19868;DHT22;10096;51.112;6.776;2022-11-11T02:54:45;8.70;99.90
19868;DHT22;10096;51.112;6.776;2022-11-11T02:57:14;8.70;92.30
19868;DHT22;10096;51.112;6.776;2022-11-11T02:59:42;8.70;1.00
19868;DHT22;10096;51.112;6.776;2022-11-11T03:02:11;8.70;99.90
19868;DHT22;10096;51.112;6.776;2022-11-11T03:04:38;8.60;28.50
19868;DHT22;10096;51.112;6.776;2022-11-11T03:07:05;8.60;99.90
19868;DHT22;10096;51.112;6.776;2022-11-11T03:09:32;8.70;1.00
19868;DHT22;10096;51.112;6.776;2022-11-11T03:11:59;8.50;13.80
19868;DHT22;10096;51.112;6.776;2022-11-11T03:14:26;8.50;1.00
19868;DHT22;10096;51.112;6.776;2022-11-11T03:16:55;8.50;1.00
19868;DHT22;10096;51.112;6.776;2022-11-11T03:19:40;8.50;1.00
19868;DHT22;10096;51.112;6.776;2022-11-11T03:22:07;8.50;1.00
19868;DHT22;10096;51.112;6.776;2022-11-11T03:24:33;8.40;99.90
19868;DHT22;10096;51.112;6.776;2022-11-11T03:27:17;8.40;99.90
19868;DHT22;10096;51.112;6.776;2022-11-11T03:29:44;8.40;99.90
19868;DHT22;10096;51.112;6.776;2022-11-11T03:32:12;8.40;1.00
19868;DHT22;10096;51.112;6.776;2022-11-11T03:34:39;8.40;99.90
19868;DHT22;10096;51.112;6.776;2022-11-11T03:37:07;8.40;99.90
19868;DHT22;10096;51.112;6.776;2022-11-11T03:39:52;8.40;1.00
19868;DHT22;10096;51.112;6.776;2022-11-11T03:42:20;8.40;99.90
19868;DHT22;10096;51.112;6.776;2022-11-11T03:44:47;8.40;73.40
19868;DHT22;10096;51.112;6.776;2022-11-11T03:47:16;8.30;1.00
19868;DHT22;10096;51.112;6.776;2022-11-11T03:49:43;8.30;12.30
19868;DHT22;10096;51.112;6.776;2022-11-11T03:52:11;8.30;88.90
19868;DHT22;10096;51.112;6.776;2022-11-11T03:54:38;8.30;1.00
19868;DHT22;10096;51.112;6.776;2022-11-11T03:57:06;8.20;92.40
19868;DHT22;10096;51.112;6.776;2022-11-11T03:59:50;8.30;99.90
19868;DHT22;10096;51.112;6.776;2022-11-11T04:02:19;8.30;99.90
19868;DHT22;10096;51.112;6.776;2022-11-11T04:05:04;8.30;1.00
19868;DHT22;10096;51.112;6.776;2022-11-11T04:07:49;8.30;99.90
19868;DHT22;10096;51.112;6.776;2022-11-11T04:10:34;8.20;1.00
19868;DHT22;10096;51.112;6.776;2022-11-11T04:13:02;8.10;1.00
19868;DHT22;10096;51.112;6.776;2022-11-11T04:15:46;8.10;1.00
19868;DHT22;10096;51.112;6.776;2022-11-11T04:18:34;8.10;1.00
19868;DHT22;10096;51.112;6.776;2022-11-11T04:21:18;8.00;99.90
19868;DHT22;10096;51.112;6.776;2022-11-11T04:24:03;8.20;99.90
19868;DHT22;10096;51.112;6.776;2022-11-11T04:26:53;8.00;1.00
19868;DHT22;10096;51.112;6.776;2022-11-11T04:29:19;8.10;1.00
19868;DHT22;10096;51.112;6.776;2022-11-11T04:31:57;8.10;99.90
19868;DHT22;10096;51.112;6.776;2022-11-11T04:34:44;8.10;99.90
19868;DHT22;10096;51.112;6.776;2022-11-11T04:37:12;8.10;99.90
19868;DHT22;10096;51.112;6.776;2022-11-11T04:39:39;8.10;12.80
19868;DHT22;10096;51.112;6.776;2022-11-11T04:42:23;8.30;1.00
19868;DHT22;10096;51.112;6.776;2022-11-11T04:44:51;8.20;1.00
19868;DHT22;10096;51.112;6.776;2022-11-11T04:47:35;8.20;1.00
19868;DHT22;10096;51.112;6.776;2022-11-11T04:50:05;8.10;1.00
19868;DHT22;10096;51.112;6.776;2022-11-11T04:52:32;8.20;1.00
19868;DHT22;10096;51.112;6.776;2022-11-11T04:55:00;8.40;1.00
19868;DHT22;10096;51.112;6.776;2022-11-11T04:57:45;8.20;1.00
19868;DHT22;10096;51.112;6.776;2022-11-11T05:00:17;8.20;1.00
19868;DHT22;10096;51.112;6.776;2022-11-11T05:02:44;8.20;1.00
19868;DHT22;10096;51.112;6.776;2022-11-11T05:05:31;8.40;99.90
19868;DHT22;10096;51.112;6.776;2022-11-11T05:08:20;8.20;1.00
19868;DHT22;10096;51.112;6.776;2022-11-11T05:11:05;8.20;1.00
19868;DHT22;10096;51.112;6.776;2022-11-11T05:13:32;8.10;1.00
19868;DHT22;10096;51.112;6.776;2022-11-11T05:16:21;8.30;1.00
19868;DHT22;10096;51.112;6.776;2022-11-11T05:19:09;8.10;1.00
19868;DHT22;10096;51.112;6.776;2022-11-11T05:21:56;8.10;99.90
19868;DHT22;10096;51.112;6.776;2022-11-11T05:24:27;8.10;99.90
19868;DHT22;10096;51.112;6.776;2022-11-11T05:27:12;8.10;6.80
19868;DHT22;10096;51.112;6.776;2022-11-11T05:29:40;8.20;99.90
19868;DHT22;10096;51.112;6.776;2022-11-11T05:32:07;8.10;1.00
19868;DHT22;10096;51.112;6.776;2022-11-11T05:34:34;8.10;1.00
19868;DHT22;10096;51.112;6.776;2022-11-11T05:37:02;8.10;1.00
19868;DHT22;10096;51.112;6.776;2022-11-11T05:39:29;8.10;99.90
19868;DHT22;10096;51.112;6.776;2022-11-11T05:41:56;8.10;1.00
19868;DHT22;10096;51.112;6.776;2022-11-11T05:44:23;8.10;1.00
19868;DHT22;10096;51.112;6.776;2022-11-11T05:46:50;8.10;1.00
19868;DHT22;10096;51.112;6.776;2022-11-11T05:49:17;8.20;1.00
19868;DHT22;10096;51.112;6.776;2022-11-11T05:51:45;8.10;1.00
19868;DHT22;10096;51.112;6.776;2022-11-11T05:54:15;8.10;1.00
19868;DHT22;10096;51.112;6.776;2022-11-11T05:56:42;8.10;99.90
19868;DHT22;10096;51.112;6.776;2022-11-11T05:59:09;8.00;99.90
19868;DHT22;10096;51.112;6.776;2022-11-11T06:01:37;8.00;1.00
19868;DHT22;10096;51.112;6.776;2022-11-11T06:04:05;8.00;99.90
19868;DHT22;10096;51.112;6.776;2022-11-11T06:06:33;8.00;99.90
19868;DHT22;10096;51.112;6.776;2022-11-11T06:09:01;8.00;99.90
19868;DHT22;10096;51.112;6.776;2022-11-11T06:11:30;8.10;99.90
19868;DHT22;10096;51.112;6.776;2022-11-11T06:13:57;8.10;99.90
19868;DHT22;10096;51.112;6.776;2022-11-11T06:16:25;8.10;1.00
19868;DHT22;10096;51.112;6.776;2022-11-11T06:18:52;8.00;1.00
19868;DHT22;10096;51.112;6.776;2022-11-11T06:21:18;8.10;99.90
19868;DHT22;10096;51.112;6.776;2022-11-11T06:23:46;8.20;65.00
19868;DHT22;10096;51.112;6.776;2022-11-11T06:26:14;8.10;18.30
19868;DHT22;10096;51.112;6.776;2022-11-11T06:28:43;8.10;14.70
19868;DHT22;10096;51.112;6.776;2022-11-11T06:31:12;8.10;1.00
19868;DHT22;10096;51.112;6.776;2022-11-11T06:33:40;8.10;1.00
19868;DHT22;10096;51.112;6.776;2022-11-11T06:36:09;8.10;1.00
19868;DHT22;10096;51.112;6.776;2022-11-11T06:38:36;8.10;99.90
19868;DHT22;10096;51.112;6.776;2022-11-11T06:41:04;8.30;62.70
19868;DHT22;10096;51.112;6.776;2022-11-11T06:43:31;8.10;1.00
19868;DHT22;10096;51.112;6.776;2022-11-11T06:45:59;8.10;1.00
19868;DHT22;10096;51.112;6.776;2022-11-11T06:48:28;8.10;1.00
19868;DHT22;10096;51.112;6.776;2022-11-11T06:51:01;8.20;1.00
19868;DHT22;10096;51.112;6.776;2022-11-11T06:53:29;8.10;99.90
19868;DHT22;10096;51.112;6.776;2022-11-11T06:55:56;8.10;1.00
19868;DHT22;10096;51.112;6.776;2022-11-11T06:58:25;8.20;91.90
19868;DHT22;10096;51.112;6.776;2022-11-11T07:00:52;8.30;1.00
19868;DHT22;10096;51.112;6.776;2022-11-11T07:03:21;8.20;1.00
19868;DHT22;10096;51.112;6.776;2022-11-11T07:05:48;8.50;1.00
19868;DHT22;10096;51.112;6.776;2022-11-11T07:08:16;8.50;99.90
19868;DHT22;10096;51.112;6.776;2022-11-11T07:10:45;8.50;1.00
19868;DHT22;10096;51.112;6.776;2022-11-11T07:13:13;8.70;1.00
19868;DHT22;10096;51.112;6.776;2022-11-11T07:15:41;8.50;1.00
19868;DHT22;10096;51.112;6.776;2022-11-11T07:18:09;8.50;99.90
19868;DHT22;10096;51.112;6.776;2022-11-11T07:20:38;8.60;99.90
19868;DHT22;10096;51.112;6.776;2022-11-11T07:23:06;8.60;79.60
19868;DHT22;10096;51.112;6.776;2022-11-11T07:25:33;8.70;99.90
19868;DHT22;10096;51.112;6.776;2022-11-11T07:28:00;8.70;1.00
19868;DHT22;10096;51.112;6.776;2022-11-11T07:30:27;8.90;99.90
19868;DHT22;10096;51.112;6.776;2022-11-11T07:32:55;8.90;8.20
19868;DHT22;10096;51.112;6.776;2022-11-11T07:35:22;8.90;99.90
19868;DHT22;10096;51.112;6.776;2022-11-11T07:37:50;9.00;99.90
19868;DHT22;10096;51.112;6.776;2022-11-11T07:40:19;9.30;99.90
19868;DHT22;10096;51.112;6.776;2022-11-11T07:42:46;9.20;1.00
19868;DHT22;10096;51.112;6.776;2022-11-11T07:45:14;9.20;99.90
19868;DHT22;10096;51.112;6.776;2022-11-11T07:47:42;9.20;99.90
19868;DHT22;10096;51.112;6.776;2022-11-11T07:50:10;9.20;99.90
19868;DHT22;10096;51.112;6.776;2022-11-11T07:52:37;9.20;99.90
19868;DHT22;10096;51.112;6.776;2022-11-11T07:55:07;9.30;99.90
19868;DHT22;10096;51.112;6.776;2022-11-11T07:57:35;9.40;99.90
19868;DHT22;10096;51.112;6.776;2022-11-11T08:00:03;9.40;99.90
19868;DHT22;10096;51.112;6.776;2022-11-11T08:02:30;9.50;99.90
19868;DHT22;10096;51.112;6.776;2022-11-11T08:04:57;9.50;99.90
19868;DHT22;10096;51.112;6.776;2022-11-11T08:07:24;9.50;99.90
19868;DHT22;10096;51.112;6.776;2022-11-11T08:09:51;9.60;1.00
19868;DHT22;10096;51.112;6.776;2022-11-11T08:12:20;9.70;1.00
19868;DHT22;10096;51.112;6.776;2022-11-11T08:15:05;9.70;1.00
19868;DHT22;10096;51.112;6.776;2022-11-11T08:17:35;9.70;1.00
19868;DHT22;10096;51.112;6.776;2022-11-11T08:20:04;9.70;1.00
19868;DHT22;10096;51.112;6.776;2022-11-11T08:22:35;9.80;1.00
19868;DHT22;10096;51.112;6.776;2022-11-11T08:25:02;9.90;1.00
19868;DHT22;10096;51.112;6.776;2022-11-11T08:27:30;9.90;1.00
19868;DHT22;10096;51.112;6.776;2022-11-11T08:29:59;9.90;1.00
19868;DHT22;10096;51.112;6.776;2022-11-11T08:32:25;10.00;1.00
19868;DHT22;10096;51.112;6.776;2022-11-11T08:34:52;10.00;1.00
19868;DHT22;10096;51.112;6.776;2022-11-11T08:37:22;10.30;1.00
19868;DHT22;10096;51.112;6.776;2022-11-11T08:39:49;10.10;1.00
19868;DHT22;10096;51.112;6.776;2022-11-11T08:42:17;10.20;1.00
19868;DHT22;10096;51.112;6.776;2022-11-11T08:44:46;10.30;99.90
19868;DHT22;10096;51.112;6.776;2022-11-11T08:47:14;10.40;1.00
19868;DHT22;10096;51.112;6.776;2022-11-11T08:49:41;10.30;1.00
19868;DHT22;10096;51.112;6.776;2022-11-11T08:52:08;10.30;99.90
19868;DHT22;10096;51.112;6.776;2022-11-11T08:54:35;10.20;99.90
19868;DHT22;10096;51.112;6.776;2022-11-11T08:57:02;10.30;99.90
19868;DHT22;10096;51.112;6.776;2022-11-11T08:59:30;10.50;99.90
19868;DHT22;10096;51.112;6.776;2022-11-11T09:01:58;10.50;99.90
19868;DHT22;10096;51.112;6.776;2022-11-11T09:04:26;10.50;99.90
19868;DHT22;10096;51.112;6.776;2022-11-11T09:06:57;10.60;99.90
19868;DHT22;10096;51.112;6.776;2022-11-11T09:09:26;10.60;99.90
19868;DHT22;10096;51.112;6.776;2022-11-11T09:11:53;10.80;99.90
19868;DHT22;10096;51.112;6.776;2022-11-11T09:14:21;11.00;99.90
19868;DHT22;10096;51.112;6.776;2022-11-11T09:16:48;10.90;99.90
19868;DHT22;10096;51.112;6.776;2022-11-11T09:19:17;11.20;99.90
19868;DHT22;10096;51.112;6.776;2022-11-11T09:21:44;11.20;99.90
19868;DHT22;10096;51.112;6.776;2022-11-11T09:24:11;11.20;99.90
19868;DHT22;10096;51.112;6.776;2022-11-11T09:26:38;11.30;99.90
19868;DHT22;10096;51.112;6.776;2022-11-11T09:29:07;11.40;99.90
19868;DHT22;10096;51.112;6.776;2022-11-11T09:31:34;11.40;99.90
19868;DHT22;10096;51.112;6.776;2022-11-11T09:34:01;11.40;99.90
19868;DHT22;10096;51.112;6.776;2022-11-11T09:36:30;11.40;99.90
19868;DHT22;10096;51.112;6.776;2022-11-11T09:38:58;11.40;99.90
19868;DHT22;10096;51.112;6.776;2022-11-11T09:41:36;11.40;99.90
19868;DHT22;10096;51.112;6.776;2022-11-11T09:44:20;11.50;99.90
19868;DHT22;10096;51.112;6.776;2022-11-11T09:46:55;11.40;99.90
19868;DHT22;10096;51.112;6.776;2022-11-11T09:52:33;11.40;99.90
19868;DHT22;10096;51.112;6.776;2022-11-11T09:55:08;11.50;99.40
19868;DHT22;10096;51.112;6.776;2022-11-11T09:57:41;11.50;35.50
19868;DHT22;10096;51.112;6.776;2022-11-11T10:00:16;11.50;69.70
19868;DHT22;10096;51.112;6.776;2022-11-11T10:02:48;11.50;69.40
19868;DHT22;10096;51.112;6.776;2022-11-11T10:05:20;11.60;33.10
19868;DHT22;10096;51.112;6.776;2022-11-11T10:07:53;11.60;89.50
19868;DHT22;10096;51.112;6.776;2022-11-11T10:10:28;11.80;3.30
19868;DHT22;10096;51.112;6.776;2022-11-11T10:12:57;11.90;1.00
19868;DHT22;10096;51.112;6.776;2022-11-11T10:15:32;12.00;1.00
19868;DHT22;10096;51.112;6.776;2022-11-11T10:18:21;12.20;1.00
19868;DHT22;10096;51.112;6.776;2022-11-11T10:20:53;12.20;1.00
19868;DHT22;10096;51.112;6.776;2022-11-11T10:23:28;12.20;1.00
19868;DHT22;10096;51.112;6.776;2022-11-11T10:26:18;12.20;1.00
19868;DHT22;10096;51.112;6.776;2022-11-11T10:28:47;12.20;1.00
19868;DHT22;10096;51.112;6.776;2022-11-11T10:31:17;12.20;1.00
19868;DHT22;10096;51.112;6.776;2022-11-11T10:33:48;12.40;1.00
19868;DHT22;10096;51.112;6.776;2022-11-11T10:36:17;12.20;1.00
19868;DHT22;10096;51.112;6.776;2022-11-11T10:38:51;12.20;1.00
19868;DHT22;10096;51.112;6.776;2022-11-11T10:41:25;12.10;1.00
19868;DHT22;10096;51.112;6.776;2022-11-11T10:43:52;12.20;1.00
19868;DHT22;10096;51.112;6.776;2022-11-11T10:46:23;12.10;1.00
19868;DHT22;10096;51.112;6.776;2022-11-11T10:48:56;12.10;1.00
19868;DHT22;10096;51.112;6.776;2022-11-11T10:51:26;12.40;1.00
19868;DHT22;10096;51.112;6.776;2022-11-11T10:54:02;12.20;1.00
19868;DHT22;10096;51.112;6.776;2022-11-11T10:56:34;12.30;1.00
19868;DHT22;10096;51.112;6.776;2022-11-11T10:59:10;12.30;1.00
19868;DHT22;10096;51.112;6.776;2022-11-11T11:01:47;12.40;1.00
19868;DHT22;10096;51.112;6.776;2022-11-11T11:04:22;12.20;1.00
19868;DHT22;10096;51.112;6.776;2022-11-11T11:06:51;12.30;1.00
19868;DHT22;10096;51.112;6.776;2022-11-11T11:09:37;12.30;1.00
19868;DHT22;10096;51.112;6.776;2022-11-11T11:12:12;12.50;1.00
19868;DHT22;10096;51.112;6.776;2022-11-11T11:14:43;12.40;1.00
19868;DHT22;10096;51.112;6.776;2022-11-11T11:17:14;12.40;1.00
19868;DHT22;10096;51.112;6.776;2022-11-11T11:19:42;12.60;1.00
19868;DHT22;10096;51.112;6.776;2022-11-11T11:22:17;12.70;1.00
19868;DHT22;10096;51.112;6.776;2022-11-11T11:24:46;12.50;1.00
19868;DHT22;10096;51.112;6.776;2022-11-11T11:27:24;12.60;1.00
19868;DHT22;10096;51.112;6.776;2022-11-11T11:29:52;12.80;1.00
19868;DHT22;10096;51.112;6.776;2022-11-11T11:32:21;12.80;1.00
19868;DHT22;10096;51.112;6.776;2022-11-11T11:34:56;12.70;1.00
19868;DHT22;10096;51.112;6.776;2022-11-11T11:37:25;12.70;1.00
19868;DHT22;10096;51.112;6.776;2022-11-11T11:40:00;12.80;1.00
19868;DHT22;10096;51.112;6.776;2022-11-11T11:42:30;12.80;1.00
19868;DHT22;10096;51.112;6.776;2022-11-11T11:45:23;12.70;1.00
19868;DHT22;10096;51.112;6.776;2022-11-11T11:48:04;12.80;1.00
19868;DHT22;10096;51.112;6.776;2022-11-11T11:50:41;12.90;1.00
19868;DHT22;10096;51.112;6.776;2022-11-11T11:53:33;13.00;1.00
19868;DHT22;10096;51.112;6.776;2022-11-11T11:56:14;13.10;1.00
19868;DHT22;10096;51.112;6.776;2022-11-11T12:03:11;13.10;1.00
19868;DHT22;10096;51.112;6.776;2022-11-11T12:05:36;13.10;1.00
19868;DHT22;10096;51.112;6.776;2022-11-11T12:08:19;13.20;1.00
19868;DHT22;10096;51.112;6.776;2022-11-11T12:10:51;13.30;1.00
19868;DHT22;10096;51.112;6.776;2022-11-11T12:13:30;13.40;1.00
19868;DHT22;10096;51.112;6.776;2022-11-11T12:16:07;13.50;1.00
19868;DHT22;10096;51.112;6.776;2022-11-11T12:18:53;13.50;1.00
19868;DHT22;10096;51.112;6.776;2022-11-11T12:21:30;13.60;1.00
19868;DHT22;10096;51.112;6.776;2022-11-11T12:24:06;13.90;1.00
19868;DHT22;10096;51.112;6.776;2022-11-11T12:26:37;14.00;1.00
19868;DHT22;10096;51.112;6.776;2022-11-11T12:29:27;13.90;1.00
19868;DHT22;10096;51.112;6.776;2022-11-11T12:32:13;14.00;1.00
19868;DHT22;10096;51.112;6.776;2022-11-11T12:35:00;14.00;1.00
19868;DHT22;10096;51.112;6.776;2022-11-11T12:37:37;14.00;1.00
19868;DHT22;10096;51.112;6.776;2022-11-11T12:40:18;14.00;1.00
19868;DHT22;10096;51.112;6.776;2022-11-11T12:43:01;14.10;1.00
19868;DHT22;10096;51.112;6.776;2022-11-11T12:45:36;14.10;1.00
19868;DHT22;10096;51.112;6.776;2022-11-11T12:48:19;14.30;1.00
19868;DHT22;10096;51.112;6.776;2022-11-11T12:50:57;14.20;1.00
19868;DHT22;10096;51.112;6.776;2022-11-11T12:53:34;14.30;1.00
19868;DHT22;10096;51.112;6.776;2022-11-11T12:56:08;14.40;1.00
19868;DHT22;10096;51.112;6.776;2022-11-11T12:58:45;14.40;1.00
19868;DHT22;10096;51.112;6.776;2022-11-11T13:01:21;14.50;1.00
19868;DHT22;10096;51.112;6.776;2022-11-11T13:04:09;14.50;1.00
19868;DHT22;10096;51.112;6.776;2022-11-11T13:07:00;14.50;1.00
19868;DHT22;10096;51.112;6.776;2022-11-11T13:09:55;14.70;1.00
19868;DHT22;10096;51.112;6.776;2022-11-11T13:12:31;14.50;1.00
19868;DHT22;10096;51.112;6.776;2022-11-11T13:15:03;14.60;1.00
19868;DHT22;10096;51.112;6.776;2022-11-11T13:17:38;14.50;1.00
19868;DHT22;10096;51.112;6.776;2022-11-11T13:20:15;14.50;1.00
19868;DHT22;10096;51.112;6.776;2022-11-11T13:22:47;14.60;1.00
19868;DHT22;10096;51.112;6.776;2022-11-11T13:25:19;14.60;1.00
19868;DHT22;10096;51.112;6.776;2022-11-11T13:27:50;14.70;1.00
19868;DHT22;10096;51.112;6.776;2022-11-11T13:30:48;14.60;1.00
19868;DHT22;10096;51.112;6.776;2022-11-11T13:33:21;14.70;1.00
19868;DHT22;10096;51.112;6.776;2022-11-11T13:35:52;14.80;1.00
19868;DHT22;10096;51.112;6.776;2022-11-11T13:38:26;14.90;1.00
19868;DHT22;10096;51.112;6.776;2022-11-11T13:40:55;14.70;1.00
19868;DHT22;10096;51.112;6.776;2022-11-11T13:43:27;14.80;1.00
19868;DHT22;10096;51.112;6.776;2022-11-11T13:45:57;14.80;1.00
19868;DHT22;10096;51.112;6.776;2022-11-11T13:48:30;14.70;1.00
19868;DHT22;10096;51.112;6.776;2022-11-11T13:51:23;14.70;1.00
19868;DHT22;10096;51.112;6.776;2022-11-11T13:53:52;14.80;1.00
19868;DHT22;10096;51.112;6.776;2022-11-11T13:56:24;14.80;1.00
19868;DHT22;10096;51.112;6.776;2022-11-11T13:58:53;14.70;1.00
19868;DHT22;10096;51.112;6.776;2022-11-11T14:01:21;14.80;1.00
19868;DHT22;10096;51.112;6.776;2022-11-11T14:04:02;14.80;1.00
19868;DHT22;10096;51.112;6.776;2022-11-11T14:06:52;14.80;1.00
19868;DHT22;10096;51.112;6.776;2022-11-11T14:09:57;14.80;1.00
19868;DHT22;10096;51.112;6.776;2022-11-11T14:12:42;14.80;1.00
19868;DHT22;10096;51.112;6.776;2022-11-11T14:15:42;14.80;1.00
19868;DHT22;10096;51.112;6.776;2022-11-11T14:18:32;14.90;1.00
19868;DHT22;10096;51.112;6.776;2022-11-11T14:21:03;14.80;1.00
19868;DHT22;10096;51.112;6.776;2022-11-11T14:23:52;14.90;1.00
19868;DHT22;10096;51.112;6.776;2022-11-11T14:26:27;14.70;1.00
19868;DHT22;10096;51.112;6.776;2022-11-11T14:28:59;14.90;1.00
19868;DHT22;10096;51.112;6.776;2022-11-11T14:31:55;14.90;1.00
19868;DHT22;10096;51.112;6.776;2022-11-11T14:34:46;14.90;1.00
19868;DHT22;10096;51.112;6.776;2022-11-11T14:37:34;14.90;1.00
19868;DHT22;10096;51.112;6.776;2022-11-11T14:40:09;15.00;1.00
19868;DHT22;10096;51.112;6.776;2022-11-11T14:42:44;14.90;1.00
19868;DHT22;10096;51.112;6.776;2022-11-11T14:54:50;14.80;1.00
19868;DHT22;10096;51.112;6.776;2022-11-11T14:57:21;14.70;1.00
19868;DHT22;10096;51.112;6.776;2022-11-11T14:59:50;14.60;1.00
19868;DHT22;10096;51.112;6.776;2022-11-11T15:02:31;14.50;1.00
19868;DHT22;10096;51.112;6.776;2022-11-11T15:05:01;14.40;1.00
19868;DHT22;10096;51.112;6.776;2022-11-11T15:08:00;14.20;1.00
19868;DHT22;10096;51.112;6.776;2022-11-11T15:13:38;14.00;1.00
19868;DHT22;10096;51.112;6.776;2022-11-11T15:16:22;13.90;1.00
19868;DHT22;10096;51.112;6.776;2022-11-11T15:19:16;13.80;1.00
19868;DHT22;10096;51.112;6.776;2022-11-11T15:21:53;13.60;1.00
19868;DHT22;10096;51.112;6.776;2022-11-11T15:24:31;13.60;1.00
19868;DHT22;10096;51.112;6.776;2022-11-11T15:27:05;13.50;1.00
19868;DHT22;10096;51.112;6.776;2022-11-11T15:29:53;13.40;1.00
19868;DHT22;10096;51.112;6.776;2022-11-11T15:32:28;13.30;1.00
19868;DHT22;10096;51.112;6.776;2022-11-11T15:35:08;13.10;1.00
19868;DHT22;10096;51.112;6.776;2022-11-11T15:37:49;13.10;1.00
19868;DHT22;10096;51.112;6.776;2022-11-11T15:40:18;13.30;1.00
19868;DHT22;10096;51.112;6.776;2022-11-11T15:42:47;13.00;1.00
19868;DHT22;10096;51.112;6.776;2022-11-11T15:45:20;13.10;1.00
19868;DHT22;10096;51.112;6.776;2022-11-11T15:47:50;12.90;1.00
19868;DHT22;10096;51.112;6.776;2022-11-11T15:50:28;12.80;1.00
19868;DHT22;10096;51.112;6.776;2022-11-11T15:52:56;12.80;1.00
19868;DHT22;10096;51.112;6.776;2022-11-11T15:55:25;12.80;1.00
19868;DHT22;10096;51.112;6.776;2022-11-11T15:58:07;12.80;1.00
19868;DHT22;10096;51.112;6.776;2022-11-11T16:00:34;12.80;1.00
19868;DHT22;10096;51.112;6.776;2022-11-11T16:03:02;12.80;1.00
19868;DHT22;10096;51.112;6.776;2022-11-11T16:05:30;12.70;1.00
19868;DHT22;10096;51.112;6.776;2022-11-11T16:08:02;12.60;1.00
19868;DHT22;10096;51.112;6.776;2022-11-11T16:10:32;12.60;1.00
19868;DHT22;10096;51.112;6.776;2022-11-11T16:13:05;12.70;1.00
19868;DHT22;10096;51.112;6.776;2022-11-11T16:15:39;12.60;1.00
19868;DHT22;10096;51.112;6.776;2022-11-11T16:18:13;12.60;1.00
19868;DHT22;10096;51.112;6.776;2022-11-11T16:20:45;12.60;1.00
19868;DHT22;10096;51.112;6.776;2022-11-11T16:23:16;12.60;1.00
19868;DHT22;10096;51.112;6.776;2022-11-11T16:25:44;12.60;1.00
19868;DHT22;10096;51.112;6.776;2022-11-11T16:28:15;12.60;1.00
19868;DHT22;10096;51.112;6.776;2022-11-11T16:30:42;12.50;1.00
19868;DHT22;10096;51.112;6.776;2022-11-11T16:33:32;12.40;1.00
19868;DHT22;10096;51.112;6.776;2022-11-11T16:36:08;12.30;1.00
19868;DHT22;10096;51.112;6.776;2022-11-11T16:38:35;12.30;1.00
19868;DHT22;10096;51.112;6.776;2022-11-11T16:41:19;12.10;1.00
19868;DHT22;10096;51.112;6.776;2022-11-11T16:43:50;12.00;1.00
19868;DHT22;10096;51.112;6.776;2022-11-11T16:46:38;12.00;1.00